createdAt,value
2022-11-06T00:00:34.504Z,295.70
2022-11-06T00:03:01.112Z,293.63
2022-11-06T00:05:27.636Z,290.42
2022-11-06T00:07:53.964Z,285.77
2022-11-06T00:10:20.230Z,286.48
2022-11-06T00:12:46.490Z,280.20
2022-11-06T00:15:12.779Z,275.73
2022-11-06T00:17:39.057Z,269.75
2022-11-06T00:20:05.336Z,324.80
2022-11-06T00:22:31.589Z,340.60
2022-11-06T00:24:57.812Z,340.73
2022-11-06T00:27:24.272Z,336.15
2022-11-06T00:29:50.743Z,337.58
2022-11-06T00:32:17.223Z,338.77
2022-11-06T00:34:43.831Z,330.40
2022-11-06T00:37:10.118Z,324.60
2022-11-06T00:39:36.593Z,329.98
2022-11-06T00:42:02.859Z,319.13
2022-11-06T00:44:29.247Z,311.75
2022-11-06T00:46:55.531Z,309.05
2022-11-06T00:49:21.801Z,305.23
2022-11-06T00:51:48.107Z,299.75
2022-11-06T00:54:14.335Z,294.83
2022-11-06T00:56:40.760Z,288.67
2022-11-06T00:59:07.109Z,289.92
2022-11-06T01:01:33.526Z,282.30
2022-11-06T01:04:00.411Z,273.88
2022-11-06T01:06:26.723Z,276.42
2022-11-06T01:08:53.094Z,265.70
2022-11-06T01:11:19.360Z,267.75
2022-11-06T01:13:45.655Z,262.88
2022-11-06T01:16:12.044Z,257.02
2022-11-06T01:18:38.346Z,257.58
2022-11-06T01:21:04.580Z,255.65
2022-11-06T01:23:30.892Z,243.80
2022-11-06T01:25:57.174Z,246.55
2022-11-06T01:28:23.460Z,235.95
2022-11-06T01:30:49.736Z,237.35
2022-11-06T01:33:16.066Z,232.40
2022-11-06T01:35:42.394Z,225.63
2022-11-06T01:38:08.652Z,224.57
2022-11-06T01:40:34.976Z,225.80
2022-11-06T01:43:01.288Z,218.77
2022-11-06T01:45:27.593Z,216.98
2022-11-06T01:47:54.073Z,214.75
2022-11-06T01:50:20.374Z,209.20
2022-11-06T01:52:46.592Z,207.70
2022-11-06T01:55:12.945Z,199.18
2022-11-06T01:57:39.482Z,194.98
2022-11-06T02:00:05.860Z,194.70
2022-11-06T02:02:32.342Z,187.85
2022-11-06T02:04:58.805Z,192.70
2022-11-06T02:07:26.973Z,186.40
2022-11-06T02:09:53.322Z,182.13
2022-11-06T02:12:19.740Z,179.73
2022-11-06T02:14:46.130Z,177.85
2022-11-06T02:17:12.664Z,171.70
2022-11-06T02:19:39.031Z,169.50
2022-11-06T02:22:05.354Z,169.27
2022-11-06T02:24:31.795Z,165.02
2022-11-06T02:26:58.208Z,164.13
2022-11-06T02:29:24.527Z,161.18
2022-11-06T02:31:50.966Z,156.52
2022-11-06T02:34:17.351Z,152.30
2022-11-06T02:36:43.574Z,155.75
2022-11-06T02:39:09.981Z,151.40
2022-11-06T02:41:36.521Z,150.27
2022-11-06T02:44:02.878Z,145.45
2022-11-06T02:46:29.199Z,147.40
2022-11-06T02:48:55.579Z,141.40
2022-11-06T02:51:21.893Z,138.02
2022-11-06T02:53:48.474Z,138.65
2022-11-06T02:56:14.868Z,137.60
2022-11-06T02:58:44.829Z,135.50
2022-11-06T03:01:15.226Z,133.18
2022-11-06T03:03:41.588Z,129.52
2022-11-06T03:06:08.247Z,128.90
2022-11-06T03:08:34.620Z,128.52
2022-11-06T03:11:01.081Z,127.55
2022-11-06T03:13:27.513Z,126.15
2022-11-06T03:15:53.855Z,123.40
2022-11-06T03:18:20.201Z,120.70
2022-11-06T03:20:46.625Z,115.65
2022-11-06T03:25:42.581Z,115.88
2022-11-06T03:28:09.229Z,113.75
2022-11-06T03:30:35.781Z,112.03
2022-11-06T03:33:02.030Z,110.18
2022-11-06T03:35:28.362Z,112.25
2022-11-06T03:37:54.778Z,107.25
2022-11-06T03:40:21.114Z,104.97
2022-11-06T03:42:47.507Z,107.15
2022-11-06T03:45:13.807Z,102.30
2022-11-06T03:47:40.169Z,97.88
2022-11-06T03:50:06.545Z,98.60
2022-11-06T03:52:36.199Z,96.00
2022-11-06T03:55:02.531Z,98.50
2022-11-06T03:57:28.907Z,94.10
2022-11-06T03:59:55.208Z,93.22
2022-11-06T04:02:21.733Z,93.80
2022-11-06T04:04:49.561Z,88.20
2022-11-06T04:07:16.407Z,90.78
2022-11-06T04:09:42.775Z,88.15
2022-11-06T04:12:09.161Z,86.43
2022-11-06T04:14:35.636Z,86.40
2022-11-06T04:17:02.017Z,84.55
2022-11-06T04:19:28.364Z,84.57
2022-11-06T04:21:54.829Z,82.03
2022-11-06T04:24:21.126Z,82.63
2022-11-06T04:26:47.451Z,80.05
2022-11-06T04:29:13.868Z,83.63
2022-11-06T04:31:40.200Z,78.03
2022-11-06T04:34:06.544Z,76.82
2022-11-06T04:36:33.136Z,77.35
2022-11-06T04:38:59.454Z,76.82
2022-11-06T04:41:25.766Z,74.90
2022-11-06T04:43:52.106Z,74.72
2022-11-06T04:46:18.355Z,71.93
2022-11-06T04:48:44.730Z,71.72
2022-11-06T04:51:11.183Z,71.63
2022-11-06T04:53:37.682Z,67.93
2022-11-06T04:56:04.230Z,69.30
2022-11-06T04:58:30.704Z,66.90
2022-11-06T05:00:57.115Z,64.90
2022-11-06T05:03:23.603Z,66.80
2022-11-06T05:05:49.912Z,62.47
2022-11-06T05:08:16.669Z,65.85
2022-11-06T05:10:43.254Z,62.88
2022-11-06T05:13:09.724Z,59.65
2022-11-06T05:15:36.112Z,62.50
2022-11-06T05:18:02.467Z,59.90
2022-11-06T05:20:28.744Z,59.97
2022-11-06T05:22:55.267Z,58.97
2022-11-06T05:25:21.908Z,58.30
2022-11-06T05:27:48.456Z,56.83
2022-11-06T05:30:14.963Z,57.33
2022-11-06T05:32:41.324Z,56.55
2022-11-06T05:35:07.627Z,54.25
2022-11-06T05:37:33.926Z,54.33
2022-11-06T05:40:00.158Z,53.17
2022-11-06T05:42:26.659Z,51.03
2022-11-06T05:44:53.193Z,53.63
2022-11-06T05:47:19.507Z,52.42
2022-11-06T05:49:45.857Z,51.25
2022-11-06T05:52:12.132Z,49.80
2022-11-06T05:54:38.502Z,49.92
2022-11-06T05:57:04.864Z,49.28
2022-11-06T05:59:31.208Z,48.33
2022-11-06T06:01:57.560Z,47.97
2022-11-06T06:04:24.014Z,46.67
2022-11-06T06:06:50.330Z,48.50
2022-11-06T06:09:16.668Z,45.90
2022-11-06T06:11:42.918Z,45.63
2022-11-06T06:14:09.431Z,45.10
2022-11-06T06:16:35.878Z,44.33
2022-11-06T06:19:02.414Z,42.95
2022-11-06T06:21:28.650Z,43.40
2022-11-06T06:23:54.922Z,42.22
2022-11-06T06:26:21.255Z,41.60
2022-11-06T06:28:47.758Z,41.38
2022-11-06T06:31:14.171Z,42.50
2022-11-06T06:33:40.612Z,41.15
2022-11-06T06:36:06.890Z,39.92
2022-11-06T06:38:33.270Z,39.33
2022-11-06T06:40:59.605Z,38.13
2022-11-06T06:43:25.972Z,40.33
2022-11-06T06:45:52.502Z,38.22
2022-11-06T06:48:19.018Z,37.38
2022-11-06T06:50:45.691Z,37.58
2022-11-06T06:53:11.998Z,37.13
2022-11-06T06:55:38.383Z,36.25
2022-11-06T06:58:04.751Z,35.45
2022-11-06T07:00:31.107Z,35.00
2022-11-06T07:02:57.784Z,35.75
2022-11-06T07:05:24.110Z,34.20
2022-11-06T07:07:50.596Z,34.95
2022-11-06T07:10:16.908Z,34.72
2022-11-06T07:12:43.264Z,33.28
2022-11-06T07:15:09.583Z,32.60
2022-11-06T07:17:35.897Z,31.80
2022-11-06T07:20:02.218Z,32.13
2022-11-06T07:22:35.439Z,32.10
2022-11-06T07:25:02.850Z,31.48
2022-11-06T07:27:29.185Z,32.13
2022-11-06T07:29:55.711Z,30.75
2022-11-06T07:32:22.025Z,30.88
2022-11-06T07:34:48.432Z,29.15
2022-11-06T07:37:14.720Z,29.50
2022-11-06T07:39:41.018Z,29.63
2022-11-06T07:42:07.300Z,29.73
2022-11-06T07:44:33.684Z,28.00
2022-11-06T07:47:00.505Z,28.85
2022-11-06T07:49:26.875Z,27.17
2022-11-06T07:51:53.198Z,28.48
2022-11-06T07:54:19.828Z,27.52
2022-11-06T07:56:46.183Z,28.27
2022-11-06T07:59:12.512Z,26.63
2022-11-06T08:01:38.966Z,26.52
2022-11-06T08:04:05.548Z,26.98
2022-11-06T08:06:31.916Z,26.13
2022-11-06T08:08:59.250Z,24.50
2022-11-06T08:11:25.637Z,25.67
2022-11-06T08:13:51.995Z,24.35
2022-11-06T08:16:18.253Z,24.92
2022-11-06T08:18:44.909Z,26.33
2022-11-06T08:21:11.196Z,61.40
2022-11-06T08:23:37.809Z,82.10
2022-11-06T08:26:04.512Z,140.65
2022-11-06T08:28:30.974Z,131.10
2022-11-06T08:30:57.295Z,139.38
2022-11-06T08:33:23.798Z,133.85
2022-11-06T08:35:50.218Z,127.68
2022-11-06T08:38:16.763Z,128.27
2022-11-06T08:40:43.234Z,125.22
2022-11-06T08:43:09.758Z,134.00
2022-11-06T08:45:36.019Z,260.55
2022-11-06T08:48:02.333Z,304.65
2022-11-06T08:50:28.680Z,258.60
2022-11-06T08:52:55.179Z,240.82
2022-11-06T08:55:21.760Z,237.80
2022-11-06T08:57:48.339Z,234.73
2022-11-06T09:00:14.655Z,232.65
2022-11-06T09:02:41.051Z,220.23
2022-11-06T09:05:07.398Z,214.70
2022-11-06T09:07:33.783Z,206.98
2022-11-06T09:10:00.101Z,204.85
2022-11-06T09:12:26.938Z,197.82
2022-11-06T09:14:53.547Z,195.93
2022-11-06T09:17:20.081Z,193.30
2022-11-06T09:19:46.426Z,185.88
2022-11-06T09:22:12.708Z,181.15
2022-11-06T09:25:01.866Z,180.13
2022-11-06T09:27:25.411Z,173.23
2022-11-06T09:29:51.808Z,169.52
2022-11-06T09:32:18.043Z,167.07
2022-11-06T09:34:44.772Z,155.48
2022-11-06T09:37:11.665Z,154.98
2022-11-06T09:39:38.219Z,151.75
2022-11-06T09:42:04.591Z,153.27
2022-11-06T09:44:31.104Z,149.18
2022-11-06T09:46:57.472Z,148.52
2022-11-06T09:49:23.746Z,144.35
2022-11-06T09:51:50.172Z,140.85
2022-11-06T09:54:16.733Z,140.35
2022-11-06T09:56:43.211Z,137.73
2022-11-06T09:59:09.977Z,346.85
2022-11-06T10:01:36.387Z,545.85
2022-11-06T10:04:02.882Z,343.50
2022-11-06T10:06:29.421Z,324.30
2022-11-06T10:08:56.059Z,307.45
2022-11-06T10:11:22.370Z,300.95
2022-11-06T10:13:49.123Z,289.00
2022-11-06T10:16:15.655Z,280.23
2022-11-06T10:18:41.946Z,272.85
2022-11-06T10:21:08.332Z,435.67
2022-11-06T10:23:34.687Z,445.98
2022-11-06T10:26:01.090Z,374.73
2022-11-06T10:28:28.049Z,375.95
2022-11-06T10:30:54.522Z,361.83
2022-11-06T10:33:21.028Z,359.73
2022-11-06T10:35:47.335Z,346.83
2022-11-06T10:38:13.982Z,343.42
2022-11-06T10:40:40.461Z,331.92
2022-11-06T10:43:07.157Z,335.65
2022-11-06T10:45:33.421Z,323.45
2022-11-06T10:47:59.845Z,318.45
2022-11-06T10:50:26.300Z,473.55
2022-11-06T10:52:52.658Z,443.48
2022-11-06T10:55:19.086Z,410.33
2022-11-06T10:57:45.455Z,398.02
2022-11-06T11:00:11.869Z,384.98
2022-11-06T11:02:38.325Z,376.23
2022-11-06T11:05:04.800Z,371.42
2022-11-06T11:07:31.175Z,364.52
2022-11-06T11:09:57.883Z,360.30
2022-11-06T11:12:24.144Z,358.17
2022-11-06T11:14:50.435Z,349.17
2022-11-06T11:17:16.761Z,339.77
2022-11-06T11:19:43.079Z,323.88
2022-11-06T11:22:09.573Z,565.65
2022-11-06T11:24:35.860Z,443.27
2022-11-06T11:27:02.096Z,453.55
2022-11-06T11:29:28.440Z,431.40
2022-11-06T11:31:54.705Z,406.35
2022-11-06T11:34:21.050Z,374.95
2022-11-06T11:36:47.936Z,363.27
2022-11-06T11:39:14.245Z,353.13
2022-11-06T11:41:40.572Z,326.92
2022-11-06T11:44:06.929Z,314.58
2022-11-06T11:46:33.200Z,292.15
2022-11-06T11:48:59.622Z,289.02
2022-11-06T11:51:26.251Z,275.35
2022-11-06T11:53:52.578Z,260.10
2022-11-06T11:56:31.307Z,252.27
2022-11-06T11:59:06.698Z,239.68
2022-11-06T12:01:33.198Z,225.20
2022-11-06T12:03:59.642Z,215.25
2022-11-06T12:06:26.126Z,202.40
2022-11-06T12:08:52.654Z,196.02
2022-11-06T12:11:18.958Z,188.18
2022-11-06T12:13:45.287Z,179.30
2022-11-06T12:16:11.584Z,168.10
2022-11-06T12:18:37.877Z,161.52
2022-11-06T12:21:04.399Z,155.27
2022-11-06T12:23:30.934Z,152.13
2022-11-06T12:25:57.284Z,253.48
2022-11-06T12:28:23.731Z,345.27
2022-11-06T12:30:50.219Z,303.48
2022-11-06T12:33:16.560Z,288.60
2022-11-06T12:35:42.979Z,270.90
2022-11-06T12:38:09.775Z,257.00
2022-11-06T12:40:36.178Z,247.02
2022-11-06T12:43:02.758Z,233.23
2022-11-06T12:45:29.107Z,223.50
2022-11-06T12:47:55.463Z,216.27
2022-11-06T12:50:21.913Z,207.23
2022-11-06T12:52:48.240Z,197.82
2022-11-06T12:55:14.642Z,187.63
2022-11-06T12:57:41.080Z,178.57
2022-11-06T13:00:08.150Z,187.27
2022-11-06T13:02:34.643Z,294.20
2022-11-06T13:05:01.133Z,265.67
2022-11-06T13:07:27.432Z,250.35
2022-11-06T13:09:53.918Z,233.68
2022-11-06T13:12:20.290Z,220.32
2022-11-06T13:14:46.634Z,209.38
2022-11-06T13:17:12.968Z,200.88
2022-11-06T13:19:39.606Z,198.95
2022-11-06T13:22:05.999Z,187.98
2022-11-06T13:24:32.678Z,176.27
2022-11-06T13:26:58.936Z,173.40
2022-11-06T13:29:25.558Z,166.60
2022-11-06T13:31:52.024Z,415.65
2022-11-06T13:34:18.359Z,357.23
2022-11-06T13:36:44.680Z,325.77
2022-11-06T13:39:11.019Z,316.95
2022-11-06T13:41:37.437Z,300.77
2022-11-06T13:44:03.793Z,297.42
2022-11-06T13:46:30.249Z,293.67
2022-11-06T13:48:56.673Z,286.30
2022-11-06T13:51:22.936Z,283.42
2022-11-06T13:53:49.367Z,284.23
2022-11-06T13:56:15.854Z,499.48
2022-11-06T13:58:42.280Z,502.63
2022-11-06T14:01:08.879Z,539.50
2022-11-06T14:03:35.492Z,447.05
2022-11-06T14:06:02.085Z,409.48
2022-11-06T14:08:28.463Z,405.38
2022-11-06T14:10:54.768Z,384.02
2022-11-06T14:13:21.125Z,378.45
2022-11-06T14:15:47.721Z,362.60
2022-11-06T14:18:14.259Z,359.63
2022-11-06T14:20:41.033Z,354.65
2022-11-06T14:23:07.451Z,347.35
2022-11-06T14:25:33.951Z,347.10
2022-11-06T14:28:00.296Z,345.33
2022-11-06T14:30:43.831Z,342.98
2022-11-06T14:33:13.391Z,322.38
2022-11-06T14:35:39.830Z,307.73
2022-11-06T14:38:06.230Z,286.40
2022-11-06T14:40:32.473Z,274.10
2022-11-06T14:42:58.816Z,273.38
2022-11-06T14:45:25.106Z,267.38
2022-11-06T14:47:51.400Z,261.33
2022-11-06T14:50:17.763Z,257.05
2022-11-06T14:52:44.126Z,250.20
2022-11-06T14:55:10.425Z,249.40
2022-11-06T14:57:36.851Z,244.73
2022-11-06T15:00:03.128Z,233.98
2022-11-06T15:02:29.501Z,234.18
2022-11-06T15:04:55.929Z,229.77
2022-11-06T15:07:38.810Z,232.23
2022-11-06T15:10:08.494Z,226.85
2022-11-06T15:12:34.813Z,221.77
2022-11-06T15:15:01.119Z,216.77
2022-11-06T15:17:27.686Z,219.40
2022-11-06T15:19:54.016Z,217.48
2022-11-06T15:22:20.531Z,211.95
2022-11-06T15:24:46.853Z,208.40
2022-11-06T15:27:13.139Z,207.32
2022-11-06T15:29:39.522Z,203.55
2022-11-06T15:32:05.867Z,203.23
2022-11-06T15:34:32.281Z,196.93
2022-11-06T15:36:58.641Z,192.43
2022-11-06T15:39:25.590Z,191.75
2022-11-06T15:41:51.892Z,188.85
2022-11-06T15:44:18.136Z,188.65
2022-11-06T15:46:44.630Z,191.23
2022-11-06T15:49:11.001Z,183.05
2022-11-06T15:51:37.308Z,180.30
2022-11-06T15:54:03.668Z,178.82
2022-11-06T15:56:29.918Z,177.60
2022-11-06T15:58:56.204Z,178.00
2022-11-06T16:01:22.659Z,176.68
2022-11-06T16:03:49.326Z,171.50
2022-11-06T16:06:15.617Z,166.57
2022-11-06T16:08:41.900Z,163.75
2022-11-06T16:11:13.084Z,161.40
2022-11-06T16:13:39.694Z,163.32
2022-11-06T16:16:06.104Z,158.43
2022-11-06T16:18:32.705Z,156.05
2022-11-06T16:20:59.136Z,158.63
2022-11-06T16:23:33.452Z,158.82
2022-11-06T16:26:02.488Z,152.73
2022-11-06T16:28:29.007Z,149.15
2022-11-06T16:30:55.259Z,146.82
2022-11-06T16:33:21.690Z,146.60
2022-11-06T16:35:52.594Z,141.45
2022-11-06T16:38:41.076Z,141.00
2022-11-06T16:41:07.674Z,138.77
2022-11-06T16:43:34.054Z,140.95
2022-11-06T16:46:00.380Z,136.90
2022-11-06T16:48:26.954Z,132.77
2022-11-06T16:50:53.258Z,128.85
2022-11-06T16:53:19.614Z,133.93
2022-11-06T16:55:45.941Z,131.68
2022-11-06T16:58:12.303Z,127.43
2022-11-06T17:00:38.609Z,125.72
2022-11-06T17:03:05.101Z,125.72
2022-11-06T17:05:31.378Z,121.22
2022-11-06T17:07:57.762Z,122.93
2022-11-06T17:10:24.042Z,117.70
2022-11-06T17:12:50.531Z,118.22
2022-11-06T17:15:16.852Z,116.03
2022-11-06T17:17:43.216Z,114.47
2022-11-06T17:20:09.626Z,111.55
2022-11-06T17:22:36.076Z,111.72
2022-11-06T17:25:02.370Z,108.90
2022-11-06T17:27:28.958Z,108.85
2022-11-06T17:29:55.432Z,109.47
2022-11-06T17:32:21.768Z,104.43
2022-11-06T17:34:48.100Z,105.82
2022-11-06T17:37:14.346Z,105.90
2022-11-06T17:39:40.781Z,101.05
2022-11-06T17:42:07.192Z,101.05
2022-11-06T17:44:33.683Z,100.45
2022-11-06T17:46:59.951Z,100.28
2022-11-06T17:49:26.519Z,97.03
2022-11-06T17:51:52.882Z,94.80
2022-11-06T17:54:19.450Z,95.15
2022-11-06T17:56:45.835Z,93.15
2022-11-06T17:59:12.334Z,91.75
2022-11-06T18:01:38.805Z,92.72
2022-11-06T18:04:05.169Z,88.10
2022-11-06T18:06:31.574Z,88.60
2022-11-06T18:08:57.846Z,86.50
2022-11-06T18:11:24.072Z,85.25
2022-11-06T18:13:50.375Z,85.53
2022-11-06T18:16:16.681Z,81.60
2022-11-06T18:18:42.989Z,80.68
2022-11-06T18:21:09.328Z,82.45
2022-11-06T18:23:35.735Z,80.35
2022-11-06T18:26:01.989Z,78.57
2022-11-06T18:28:28.548Z,78.72
2022-11-06T18:30:54.832Z,76.47
2022-11-06T18:33:21.238Z,74.22
2022-11-06T18:35:47.555Z,78.05
2022-11-06T18:38:14.185Z,75.30
2022-11-06T18:40:40.673Z,74.95
2022-11-06T18:43:07.103Z,73.57
2022-11-06T18:45:33.651Z,70.85
2022-11-06T18:48:00.132Z,71.78
2022-11-06T18:50:26.629Z,69.78
2022-11-06T18:52:57.805Z,69.55
2022-11-06T18:55:24.799Z,70.55
2022-11-06T18:57:51.312Z,67.75
2022-11-06T19:00:17.548Z,67.25
2022-11-06T19:02:43.953Z,65.40
2022-11-06T19:05:10.315Z,65.88
2022-11-06T19:07:37.019Z,63.55
2022-11-06T19:10:03.347Z,66.22
2022-11-06T19:12:29.644Z,63.33
2022-11-06T19:14:55.916Z,63.38
2022-11-06T19:17:22.272Z,60.35
2022-11-06T19:19:48.879Z,61.10
2022-11-06T19:22:15.141Z,58.70
2022-11-06T19:24:41.618Z,58.05
2022-11-06T19:27:07.896Z,59.33
2022-11-06T19:29:34.259Z,58.88
2022-11-06T19:32:00.589Z,58.75
2022-11-06T19:34:26.988Z,56.63
2022-11-06T19:36:53.347Z,55.83
2022-11-06T19:39:19.744Z,57.08
2022-11-06T19:41:46.055Z,57.58
2022-11-06T19:44:12.371Z,54.70
2022-11-06T19:46:38.724Z,55.08
2022-11-06T19:49:05.159Z,54.17
2022-11-06T19:51:31.431Z,54.35
2022-11-06T19:53:57.718Z,55.20
2022-11-06T19:56:24.013Z,53.28
2022-11-06T19:58:50.410Z,50.95
2022-11-06T20:01:16.754Z,50.97
2022-11-06T20:03:43.136Z,51.28
2022-11-06T20:06:09.391Z,48.25
2022-11-06T20:08:35.695Z,48.67
2022-11-06T20:11:02.142Z,48.58
2022-11-06T20:13:28.456Z,48.50
2022-11-06T20:15:54.750Z,49.03
2022-11-06T20:18:21.076Z,48.40
2022-11-06T20:20:47.385Z,46.22
2022-11-06T20:23:13.899Z,46.33
2022-11-06T20:25:40.341Z,45.13
2022-11-06T20:28:06.672Z,47.15
2022-11-06T20:30:33.204Z,44.42
2022-11-06T20:32:59.588Z,44.83
2022-11-06T20:35:25.901Z,44.25
2022-11-06T20:37:52.422Z,46.47
2022-11-06T20:40:18.740Z,43.22
2022-11-06T20:42:45.191Z,43.13
2022-11-06T20:45:11.493Z,43.22
2022-11-06T20:47:37.883Z,41.35
2022-11-06T20:50:04.389Z,42.47
2022-11-06T20:52:30.701Z,42.38
2022-11-06T20:54:57.046Z,41.15
2022-11-06T20:57:23.409Z,41.80
2022-11-06T20:59:49.686Z,40.58
2022-11-06T21:02:16.093Z,39.40
2022-11-06T21:04:42.608Z,40.50
2022-11-06T21:07:09.060Z,40.53
2022-11-06T21:09:35.416Z,38.65
2022-11-06T21:12:01.843Z,39.80
2022-11-06T21:14:28.124Z,38.95
2022-11-06T21:16:54.434Z,37.28
2022-11-06T21:19:20.766Z,38.53
2022-11-06T21:21:47.048Z,37.33
2022-11-06T21:24:13.371Z,36.50
2022-11-06T21:26:39.654Z,37.53
2022-11-06T21:29:06.012Z,37.15
2022-11-06T21:31:32.333Z,37.00
2022-11-06T21:33:58.637Z,36.20
2022-11-06T21:36:24.925Z,35.78
2022-11-06T21:38:51.279Z,35.53
2022-11-06T21:41:17.585Z,34.40
2022-11-06T21:43:44.036Z,35.13
2022-11-06T21:46:10.376Z,34.58
2022-11-06T21:48:52.220Z,33.80
2022-11-06T21:51:18.755Z,34.97
2022-11-06T21:53:45.062Z,33.75
2022-11-06T21:56:11.516Z,33.05
2022-11-06T21:58:37.803Z,33.70
2022-11-06T22:01:04.139Z,33.35
2022-11-06T22:03:31.136Z,33.78
2022-11-06T22:05:57.474Z,32.45
2022-11-06T22:08:27.101Z,31.92
2022-11-06T22:10:56.271Z,32.47
2022-11-06T22:13:22.619Z,32.45
2022-11-06T22:15:49.003Z,30.65
2022-11-06T22:18:15.501Z,31.10
2022-11-06T22:20:41.885Z,31.02
2022-11-06T22:23:08.751Z,29.67
2022-11-06T22:25:35.128Z,30.38
2022-11-06T22:28:01.535Z,29.60
2022-11-06T22:30:27.847Z,28.63
2022-11-06T22:32:54.148Z,28.83
2022-11-06T22:35:20.392Z,30.05
2022-11-06T22:37:46.720Z,28.90
2022-11-06T22:40:13.009Z,28.23
2022-11-06T22:42:39.290Z,28.33
2022-11-06T22:45:05.836Z,28.38
2022-11-06T22:47:32.187Z,27.17
2022-11-06T22:49:58.434Z,28.58
2022-11-06T22:52:24.753Z,28.35
2022-11-06T22:54:51.068Z,27.75
2022-11-06T22:57:17.796Z,28.33
2022-11-06T22:59:44.253Z,26.33
2022-11-06T23:02:10.580Z,26.27
2022-11-06T23:04:36.887Z,27.77
2022-11-06T23:07:03.269Z,26.60
2022-11-06T23:09:29.720Z,26.08
2022-11-06T23:11:56.180Z,26.95
2022-11-06T23:14:22.476Z,25.55
2022-11-06T23:16:48.699Z,24.80
2022-11-06T23:19:15.016Z,24.98
2022-11-06T23:21:41.307Z,25.05
2022-11-06T23:24:07.710Z,25.13
2022-11-06T23:26:34.124Z,24.38
2022-11-06T23:29:00.454Z,25.20
2022-11-06T23:31:26.777Z,24.20
2022-11-06T23:33:53.176Z,23.85
2022-11-06T23:36:19.467Z,24.98
2022-11-06T23:38:45.770Z,24.70
2022-11-06T23:41:12.142Z,23.65
2022-11-06T23:43:38.448Z,23.42
2022-11-06T23:46:04.672Z,22.25
2022-11-06T23:48:31.003Z,23.25
2022-11-06T23:50:57.317Z,22.90
2022-11-06T23:53:23.547Z,23.33
2022-11-06T23:55:49.803Z,23.60
2022-11-06T23:58:16.392Z,24.15
